CheckWX is a tool to help pilots better visualize weather data.  It is not intended as a substitute for an official pre-flight weather briefing.

23:21:38 UTC

EGGD METAR
Bristol International Airport
Bristol, United Kingdom
Current

32 mins ago

EGGD 192250Z AUTO 21007KT 9999 -RA BKN007 OVC038 16/16 Q1006
Observed
Jul-19 @ 22:50 UTC
Wind
  • 210° at 7 KTS
Visibility
10,000+ meters
Flight Rules
IFR
Conditions
Light Rain
Cloud Levels
  • Broken at 700' AGL
  • Overcast at 3,800' AGL
Temperature
16°C / 61°F
Dewpoint
16°C / 61°F
Humidity
100%
Altimeter
29.7" Hg
Pressure
1005.92 hPa
Previous

1 hour ago

EGGD 192220Z AUTO 20008KT 160V220 9999 SCT008 BKN013 BKN017 16/16 Q1007
Observed
Jul-19 @ 22:20 UTC
Wind
  • 200° at 8 KTS
Visibility
10,000+ meters
Flight Rules
MVFR
Cloud Levels
  • Scattered at 800' AGL
  • Broken at 1,300' AGL
  • Broken at 1,700' AGL
Temperature
16°C / 61°F
Dewpoint
16°C / 61°F
Humidity
100%
Altimeter
29.73" Hg
Pressure
1006.92 hPa
Previous

2 hours ago

EGGD 192150Z AUTO 20007KT 160V230 8000 BKN006 BKN018 OVC041 16/16 Q1007 RERA
Observed
Jul-19 @ 21:50 UTC
Wind
  • 200° at 7 KTS
Visibility
8,000 meters
Flight Rules
IFR
Cloud Levels
  • Broken at 600' AGL
  • Broken at 1,800' AGL
  • Overcast at 4,100' AGL
Temperature
16°C / 61°F
Dewpoint
16°C / 61°F
Humidity
100%
Altimeter
29.73" Hg
Pressure
1006.92 hPa